Flight Track Log - Related Links

Times and Time Zones

All times are in EDT time to prevent confusion due to time zone crossing. See the GGA1 flight status page for this flight to view local times or setup timezone preferences in your user account.

Time Position Orientation Groundspeed Altitude Reporting Facility
EDT Latitude Longitude Course Direction KTS MPH feet Rate Location/Type
Thu 04:10:46 PM 33.9667 -83.3500 344° North 152 175 2,000  Level Atlanta TRACON
Thu 04:11:32 PM 33.9947 -83.3597 344° North 158 182 3,500 1,981 Climbing Atlanta Center
Thu 04:12:32 PM 34.0322 -83.3219 40° Northeast 171 197 5,500 1,850 Climbing Atlanta Center
Thu 04:13:32 PM 34.0675 -83.2764 47° Northeast 188 216 7,200 1,750 Climbing Atlanta Center
Thu 04:14:32 PM 34.1025 -83.2286 48° Northeast 208 239 9,000 1,400 Climbing Atlanta Center
Thu 04:15:32 PM 34.1397 -83.1728 51° Northeast 213 245 10,000 1,700 Climbing Atlanta Center
Thu 04:17:32 PM 34.2225 -83.0664 47° Northeast 212 244 14,100 2,033 Climbing Atlanta Center
Thu 04:18:32 PM 34.2658 -83.0158 44° Northeast 212 244 16,100 1,850 Climbing Atlanta Center
Thu 04:19:32 PM 34.2967 -82.9600 56° Northeast 206 237 17,800 1,600 Climbing Atlanta Center
Thu 04:20:32 PM 34.3422 -82.9042 45° Northeast 211 243 19,300 1,300 Climbing Atlanta Center
Thu 04:21:32 PM 34.3792 -82.8433 54° Northeast 216 249 20,400 1,150 Climbing Atlanta Center
Thu 04:22:32 PM 34.4286 -82.7822 46° Northeast 228 262 21,600 300 Climbing Atlanta Center
Thu 04:23:32 PM 34.4778 -82.7083 51° Northeast 252 290 21,000 -300 Descending Atlanta Center
Thu 04:24:32 PM 34.5292 -82.6369 49° Northeast 278 320 21,000  Level Atlanta Center
Thu 04:25:32 PM 34.5828 -82.5653 48° Northeast 288 331 21,000  Level Atlanta Center
Thu 04:26:32 PM 34.6358 -82.4861 51° Northeast 288 331 21,000  Level Atlanta Center
Thu 04:27:32 PM 34.6872 -82.4169 48° Northeast 288 331 21,000  Level Atlanta Center
Thu 04:28:32 PM 34.7383 -82.3428 50° Northeast 288 331 21,000  Level Atlanta Center
Thu 04:29:32 PM 34.7917 -82.2683 49° Northeast 288 331 21,000  Level Atlanta Center
Thu 04:30:32 PM 34.8447 -82.1911 50° Northeast 288 331 21,000  Level Atlanta Center
Thu 04:31:32 PM 34.9000 -82.1192 47° Northeast 288 331 21,000  Level Atlanta Center
Thu 04:32:32 PM 34.9489 -82.0519 48° Northeast 293 337 21,000  Level Atlanta Center
Thu 04:33:32 PM 35.0042 -81.9747 49° Northeast 293 337 21,000  Level Atlanta Center
Thu 04:34:32 PM 35.0653 -81.8944 47° Northeast 293 337 21,000  Level Atlanta Center
Thu 04:35:32 PM 35.1397 -81.8519 25° Northeast 287 330 21,000  Level Atlanta Center
Thu 04:36:32 PM 35.2053 -81.7942 36° Northeast 294 338 21,000  Level Atlanta Center
Thu 04:37:32 PM 35.2772 -81.7389 32° Northeast 294 338 21,000  Level Atlanta Center
Thu 04:38:32 PM 35.3472 -81.6836 33° Northeast 299 344 21,000 -150 Level Atlanta Center
Thu 04:39:32 PM 35.4169 -81.6253 34° Northeast 299 344 20,700 -550 Descending Atlanta Center
Thu 04:40:32 PM 35.4889 -81.5672 33° Northeast 305 351 19,900 -800 Descending Atlanta Center
Thu 04:41:32 PM 35.5586 -81.5114 33° Northeast 305 351 19,100 -450 Descending Atlanta Center
Thu 04:42:32 PM 35.6203 -81.4636 32° Northeast 295 339 19,000 -50 Descending Atlanta Center
Thu 04:43:32 PM 35.6858 -81.4103 33° Northeast 289 333 19,000 -650 Level Atlanta Center
Thu 04:44:32 PM 35.7578 -81.3544 32° Northeast 289 333 17,700 -1,500 Descending Atlanta Center
Thu 04:45:32 PM 35.8397 -81.2875 34° Northeast 306 352 16,000 -1,650 Descending Atlanta Center
Thu 04:46:32 PM 35.8944 -81.2139 47° Northeast 306 352 14,400 -1,650 Descending Atlanta Center
Thu 04:47:32 PM 35.9192 -81.1106 74° East 293 337 12,700 -1,700 Descending Atlanta Center
Thu 04:48:32 PM 35.9436 -81.0072 74° East 306 352 11,000 -1,750 Descending Atlanta Center
Thu 04:49:32 PM 35.9703 -80.9033 72° East 306 352 9,200 -1,550 Descending Atlanta Center
Thu 04:50:32 PM 35.9928 -80.8050 74° East 306 352 7,900 -1,100 Descending Atlanta Center
Thu 04:51:32 PM 36.0114 -80.7197 75° East 294 338 7,000 -500 Descending Atlanta Center
Thu 04:52:32 PM 36.0319 -80.6342 73° East 267 307 6,900 -50 Descending Atlanta Center
Thu 04:53:32 PM 36.0583 -80.5378 71° East 261 300 6,900 -650 Level Atlanta Center
Thu 04:54:32 PM 36.0808 -80.4469 73° East 266 306 5,600 -1,250 Descending Atlanta Center
Thu 04:55:32 PM 36.1011 -80.3586 74° East 266 306 4,400 -1,200 Descending Atlanta Center
Thu 04:56:32 PM 36.0989 -80.2817 92° East 253 291 3,200 -950 Descending Atlanta Center
Thu 04:57:32 PM 36.0961 -80.1944 92° East 235 270 2,500 1,900 Descending Atlanta Center
Thu 04:58:32 PM 36.0936 -80.1125 92° East 235 270 7,000 2,250 Climbing Atlanta Center
Thu 04:59:32 PM 36.0908 -80.0278 92° East 235 270 7,000  Level Atlanta Center
Thu 05:01:00 PM 36.1194 -80.1568 292° West  Level Estimated

Login

Don't have an account? Register now (free) for customized features, flight alerts, and more!